sensor_id;sensor_type;location;lat;lon;timestamp;P1;durP1;ratioP1;P2;durP2;ratioP2
12155;SDS011;6141;49.092;8.516;2022-07-17T00:33:12;2.43;;;2.23;;
12155;SDS011;6141;49.092;8.516;2022-07-17T00:36:08;2.90;;;2.07;;
12155;SDS011;6141;49.092;8.516;2022-07-17T00:38:49;2.43;;;2.17;;
12155;SDS011;6141;49.092;8.516;2022-07-17T00:41:50;3.20;;;2.00;;
12155;SDS011;6141;49.092;8.516;2022-07-17T00:44:35;2.93;;;2.00;;
12155;SDS011;6141;49.092;8.516;2022-07-17T00:47:22;2.67;;;2.40;;
12155;SDS011;6141;49.092;8.516;2022-07-17T01:03:51;3.30;;;2.40;;
12155;SDS011;6141;49.092;8.516;2022-07-17T01:07:30;3.33;;;2.40;;
12155;SDS011;6141;49.092;8.516;2022-07-17T01:10:08;2.90;;;2.50;;
12155;SDS011;6141;49.092;8.516;2022-07-17T01:17:30;3.33;;;2.50;;
12155;SDS011;6141;49.092;8.516;2022-07-17T02:08:38;2.80;;;2.60;;
12155;SDS011;6141;49.092;8.516;2022-07-17T02:11:43;2.83;;;2.57;;
12155;SDS011;6141;49.092;8.516;2022-07-17T02:14:35;2.73;;;2.43;;
12155;SDS011;6141;49.092;8.516;2022-07-17T02:17:20;6.40;;;2.47;;
12155;SDS011;6141;49.092;8.516;2022-07-17T02:20:15;3.20;;;2.27;;
12155;SDS011;6141;49.092;8.516;2022-07-17T02:22:57;4.00;;;2.70;;
12155;SDS011;6141;49.092;8.516;2022-07-17T02:25:35;4.20;;;2.67;;
12155;SDS011;6141;49.092;8.516;2022-07-17T02:28:22;3.63;;;2.60;;
12155;SDS011;6141;49.092;8.516;2022-07-17T02:31:10;6.30;;;2.40;;
12155;SDS011;6141;49.092;8.516;2022-07-17T02:34:04;4.73;;;2.60;;
12155;SDS011;6141;49.092;8.516;2022-07-17T02:36:46;3.40;;;2.70;;
12155;SDS011;6141;49.092;8.516;2022-07-17T02:39:22;2.97;;;2.40;;
12155;SDS011;6141;49.092;8.516;2022-07-17T02:42:01;2.83;;;2.53;;
12155;SDS011;6141;49.092;8.516;2022-07-17T02:45:06;4.53;;;2.53;;
12155;SDS011;6141;49.092;8.516;2022-07-17T02:48:15;2.73;;;2.47;;
12155;SDS011;6141;49.092;8.516;2022-07-17T02:51:05;2.90;;;2.60;;
12155;SDS011;6141;49.092;8.516;2022-07-17T02:53:58;4.40;;;2.73;;
12155;SDS011;6141;49.092;8.516;2022-07-17T02:56:35;3.83;;;2.80;;
12155;SDS011;6141;49.092;8.516;2022-07-17T02:59:20;3.40;;;3.10;;
12155;SDS011;6141;49.092;8.516;2022-07-17T03:02:08;6.33;;;2.83;;
12155;SDS011;6141;49.092;8.516;2022-07-17T03:04:57;5.90;;;2.80;;
12155;SDS011;6141;49.092;8.516;2022-07-17T03:07:40;3.70;;;2.70;;
12155;SDS011;6141;49.092;8.516;2022-07-17T03:10:39;4.37;;;2.80;;
12155;SDS011;6141;49.092;8.516;2022-07-17T03:32:22;4.27;;;3.30;;
12155;SDS011;6141;49.092;8.516;2022-07-17T03:38:56;3.60;;;2.83;;
12155;SDS011;6141;49.092;8.516;2022-07-17T03:42:01;3.23;;;2.83;;
12155;SDS011;6141;49.092;8.516;2022-07-17T03:44:43;3.20;;;2.90;;
12155;SDS011;6141;49.092;8.516;2022-07-17T03:47:27;5.27;;;2.93;;
12155;SDS011;6141;49.092;8.516;2022-07-17T03:50:09;5.20;;;3.10;;
12155;SDS011;6141;49.092;8.516;2022-07-17T03:52:46;2.87;;;2.63;;
12155;SDS011;6141;49.092;8.516;2022-07-17T03:55:26;4.30;;;3.07;;
12155;SDS011;6141;49.092;8.516;2022-07-17T03:57:59;4.63;;;3.33;;
12155;SDS011;6141;49.092;8.516;2022-07-17T04:00:39;3.30;;;3.00;;
12155;SDS011;6141;49.092;8.516;2022-07-17T04:04:15;4.57;;;3.60;;
12155;SDS011;6141;49.092;8.516;2022-07-17T04:07:20;5.47;;;3.53;;
12155;SDS011;6141;49.092;8.516;2022-07-17T04:11:10;3.60;;;3.30;;
12155;SDS011;6141;49.092;8.516;2022-07-17T04:14:13;4.83;;;3.80;;
12155;SDS011;6141;49.092;8.516;2022-07-17T04:21:09;4.33;;;3.50;;
12155;SDS011;6141;49.092;8.516;2022-07-17T04:24:55;4.43;;;3.33;;
12155;SDS011;6141;49.092;8.516;2022-07-17T04:38:40;5.83;;;3.50;;
12155;SDS011;6141;49.092;8.516;2022-07-17T04:41:34;4.57;;;3.60;;
12155;SDS011;6141;49.092;8.516;2022-07-17T04:44:24;3.70;;;3.40;;
12155;SDS011;6141;49.092;8.516;2022-07-17T04:46:55;3.60;;;3.30;;
12155;SDS011;6141;49.092;8.516;2022-07-17T04:49:36;4.63;;;3.70;;
12155;SDS011;6141;49.092;8.516;2022-07-17T04:52:14;7.03;;;3.77;;
12155;SDS011;6141;49.092;8.516;2022-07-17T04:54:53;5.87;;;3.60;;
12155;SDS011;6141;49.092;8.516;2022-07-17T04:57:36;4.60;;;3.83;;
12155;SDS011;6141;49.092;8.516;2022-07-17T05:00:32;4.17;;;3.57;;
12155;SDS011;6141;49.092;8.516;2022-07-17T05:03:21;4.13;;;3.53;;
12155;SDS011;6141;49.092;8.516;2022-07-17T05:05:59;3.83;;;3.33;;
12155;SDS011;6141;49.092;8.516;2022-07-17T05:08:34;4.83;;;3.60;;
12155;SDS011;6141;49.092;8.516;2022-07-17T05:11:26;5.43;;;3.10;;
12155;SDS011;6141;49.092;8.516;2022-07-17T05:13:55;3.60;;;3.30;;
12155;SDS011;6141;49.092;8.516;2022-07-17T05:16:29;3.80;;;3.40;;
12155;SDS011;6141;49.092;8.516;2022-07-17T05:19:09;5.87;;;3.40;;
12155;SDS011;6141;49.092;8.516;2022-07-17T05:22:05;6.43;;;2.97;;
12155;SDS011;6141;49.092;8.516;2022-07-17T05:24:47;3.27;;;2.90;;
12155;SDS011;6141;49.092;8.516;2022-07-17T05:27:21;3.07;;;2.73;;
12155;SDS011;6141;49.092;8.516;2022-07-17T05:29:50;4.33;;;2.93;;
12155;SDS011;6141;49.092;8.516;2022-07-17T05:32:21;3.20;;;2.60;;
12155;SDS011;6141;49.092;8.516;2022-07-17T05:34:50;3.70;;;2.50;;
12155;SDS011;6141;49.092;8.516;2022-07-17T05:37:19;6.57;;;2.40;;
12155;SDS011;6141;49.092;8.516;2022-07-17T05:39:50;3.27;;;2.10;;
12155;SDS011;6141;49.092;8.516;2022-07-17T05:42:20;4.83;;;2.20;;
12155;SDS011;6141;49.092;8.516;2022-07-17T05:44:49;4.90;;;2.63;;
12155;SDS011;6141;49.092;8.516;2022-07-17T05:47:21;5.47;;;2.20;;
12155;SDS011;6141;49.092;8.516;2022-07-17T05:49:50;4.80;;;2.03;;
12155;SDS011;6141;49.092;8.516;2022-07-17T05:56:18;4.17;;;2.20;;
12155;SDS011;6141;49.092;8.516;2022-07-17T06:02:58;3.40;;;2.13;;
12155;SDS011;6141;49.092;8.516;2022-07-17T06:13:19;6.40;;;2.30;;
12155;SDS011;6141;49.092;8.516;2022-07-17T06:26:54;2.87;;;1.83;;
12155;SDS011;6141;49.092;8.516;2022-07-17T06:30:55;4.47;;;1.90;;
12155;SDS011;6141;49.092;8.516;2022-07-17T06:38:19;4.10;;;1.87;;
12155;SDS011;6141;49.092;8.516;2022-07-17T06:42:26;4.43;;;1.63;;
12155;SDS011;6141;49.092;8.516;2022-07-17T06:45:00;3.10;;;1.70;;
12155;SDS011;6141;49.092;8.516;2022-07-17T06:47:31;3.53;;;1.70;;
12155;SDS011;6141;49.092;8.516;2022-07-17T06:50:00;3.53;;;1.80;;
12155;SDS011;6141;49.092;8.516;2022-07-17T06:52:55;4.20;;;1.70;;
12155;SDS011;6141;49.092;8.516;2022-07-17T06:55:30;2.53;;;1.50;;
12155;SDS011;6141;49.092;8.516;2022-07-17T07:14:29;3.37;;;1.70;;
12155;SDS011;6141;49.092;8.516;2022-07-17T07:18:48;2.97;;;1.57;;
12155;SDS011;6141;49.092;8.516;2022-07-17T07:22:51;3.60;;;1.60;;
12155;SDS011;6141;49.092;8.516;2022-07-17T07:25:27;5.23;;;1.83;;
12155;SDS011;6141;49.092;8.516;2022-07-17T07:28:03;2.23;;;1.43;;
12155;SDS011;6141;49.092;8.516;2022-07-17T07:30:45;5.87;;;1.67;;
12155;SDS011;6141;49.092;8.516;2022-07-17T07:33:20;2.37;;;1.50;;
12155;SDS011;6141;49.092;8.516;2022-07-17T07:35:50;3.90;;;1.97;;
12155;SDS011;6141;49.092;8.516;2022-07-17T07:38:21;3.70;;;2.10;;
12155;SDS011;6141;49.092;8.516;2022-07-17T07:41:03;2.17;;;1.50;;
12155;SDS011;6141;49.092;8.516;2022-07-17T07:43:47;2.83;;;1.67;;
12155;SDS011;6141;49.092;8.516;2022-07-17T07:49:42;3.63;;;1.63;;
12155;SDS011;6141;49.092;8.516;2022-07-17T07:52:55;3.00;;;1.53;;
12155;SDS011;6141;49.092;8.516;2022-07-17T07:59:25;3.60;;;1.50;;
12155;SDS011;6141;49.092;8.516;2022-07-17T08:06:58;5.33;;;1.60;;
12155;SDS011;6141;49.092;8.516;2022-07-17T08:09:47;6.23;;;1.53;;
12155;SDS011;6141;49.092;8.516;2022-07-17T08:12:48;1.83;;;1.37;;
12155;SDS011;6141;49.092;8.516;2022-07-17T08:15:44;2.47;;;1.47;;
12155;SDS011;6141;49.092;8.516;2022-07-17T08:19:05;1.70;;;1.20;;
12155;SDS011;6141;49.092;8.516;2022-07-17T08:22:15;3.10;;;1.40;;
12155;SDS011;6141;49.092;8.516;2022-07-17T08:27:33;3.70;;;1.40;;
12155;SDS011;6141;49.092;8.516;2022-07-17T08:32:31;2.60;;;1.47;;
12155;SDS011;6141;49.092;8.516;2022-07-17T08:36:33;3.60;;;1.40;;
12155;SDS011;6141;49.092;8.516;2022-07-17T08:39:10;3.70;;;1.33;;
12155;SDS011;6141;49.092;8.516;2022-07-17T08:42:05;3.37;;;1.67;;
12155;SDS011;6141;49.092;8.516;2022-07-17T08:44:56;1.47;;;1.20;;
12155;SDS011;6141;49.092;8.516;2022-07-17T08:47:38;4.13;;;1.43;;
12155;SDS011;6141;49.092;8.516;2022-07-17T08:51:14;3.33;;;1.50;;
12155;SDS011;6141;49.092;8.516;2022-07-17T08:54:18;2.70;;;1.43;;
12155;SDS011;6141;49.092;8.516;2022-07-17T08:57:44;4.73;;;1.50;;
12155;SDS011;6141;49.092;8.516;2022-07-17T09:01:02;3.57;;;1.43;;
12155;SDS011;6141;49.092;8.516;2022-07-17T09:04:52;2.90;;;1.50;;
12155;SDS011;6141;49.092;8.516;2022-07-17T09:07:45;3.20;;;1.40;;
12155;SDS011;6141;49.092;8.516;2022-07-17T09:14:36;2.60;;;1.40;;
12155;SDS011;6141;49.092;8.516;2022-07-17T09:17:12;3.53;;;1.60;;
12155;SDS011;6141;49.092;8.516;2022-07-17T09:20:15;1.87;;;1.40;;
12155;SDS011;6141;49.092;8.516;2022-07-17T09:23:19;2.80;;;1.50;;
12155;SDS011;6141;49.092;8.516;2022-07-17T09:26:42;3.00;;;1.43;;
12155;SDS011;6141;49.092;8.516;2022-07-17T09:29:48;2.90;;;1.50;;
12155;SDS011;6141;49.092;8.516;2022-07-17T09:37:52;2.40;;;1.40;;
12155;SDS011;6141;49.092;8.516;2022-07-17T09:40:27;2.77;;;1.17;;
12155;SDS011;6141;49.092;8.516;2022-07-17T09:43:15;2.93;;;1.30;;
12155;SDS011;6141;49.092;8.516;2022-07-17T09:45:52;2.03;;;1.20;;
12155;SDS011;6141;49.092;8.516;2022-07-17T09:48:21;3.00;;;1.57;;
12155;SDS011;6141;49.092;8.516;2022-07-17T09:50:52;1.50;;;1.20;;
12155;SDS011;6141;49.092;8.516;2022-07-17T09:53:24;2.30;;;1.40;;
12155;SDS011;6141;49.092;8.516;2022-07-17T09:56:05;1.40;;;1.10;;
12155;SDS011;6141;49.092;8.516;2022-07-17T09:58:52;2.90;;;1.40;;
12155;SDS011;6141;49.092;8.516;2022-07-17T10:02:21;3.73;;;1.80;;
12155;SDS011;6141;49.092;8.516;2022-07-17T10:05:47;2.23;;;1.30;;
12155;SDS011;6141;49.092;8.516;2022-07-17T10:52:40;1.55;;;1.23;;
12155;SDS011;6141;49.092;8.516;2022-07-17T10:56:07;1.20;;;1.10;;
12155;SDS011;6141;49.092;8.516;2022-07-17T11:02:04;3.70;;;1.53;;
12155;SDS011;6141;49.092;8.516;2022-07-17T11:09:02;1.65;;;1.10;;
12155;SDS011;6141;49.092;8.516;2022-07-17T11:16:42;3.30;;;1.23;;
12155;SDS011;6141;49.092;8.516;2022-07-17T17:07:31;2.15;;;1.20;;
12155;SDS011;6141;49.092;8.516;2022-07-17T20:58:40;5.67;;;1.77;;
12155;SDS011;6141;49.092;8.516;2022-07-17T21:01:09;2.90;;;1.63;;
12155;SDS011;6141;49.092;8.516;2022-07-17T21:03:38;4.07;;;1.70;;
12155;SDS011;6141;49.092;8.516;2022-07-17T21:06:10;5.63;;;1.73;;
12155;SDS011;6141;49.092;8.516;2022-07-17T21:08:40;6.43;;;2.27;;
12155;SDS011;6141;49.092;8.516;2022-07-17T21:11:08;8.23;;;2.13;;
12155;SDS011;6141;49.092;8.516;2022-07-17T21:19:05;4.97;;;1.70;;
12155;SDS011;6141;49.092;8.516;2022-07-17T21:21:33;4.77;;;2.33;;
12155;SDS011;6141;49.092;8.516;2022-07-17T21:24:02;2.50;;;1.80;;
12155;SDS011;6141;49.092;8.516;2022-07-17T21:26:41;2.70;;;1.70;;
12155;SDS011;6141;49.092;8.516;2022-07-17T21:29:10;8.27;;;1.93;;
12155;SDS011;6141;49.092;8.516;2022-07-17T21:34:29;3.50;;;1.97;;
12155;SDS011;6141;49.092;8.516;2022-07-17T21:37:04;3.30;;;1.80;;
12155;SDS011;6141;49.092;8.516;2022-07-17T21:39:32;4.77;;;1.97;;
12155;SDS011;6141;49.092;8.516;2022-07-17T21:42:01;3.77;;;1.90;;
12155;SDS011;6141;49.092;8.516;2022-07-17T21:44:30;6.17;;;2.20;;
12155;SDS011;6141;49.092;8.516;2022-07-17T21:46:58;5.90;;;1.83;;
12155;SDS011;6141;49.092;8.516;2022-07-17T21:49:30;4.37;;;1.93;;
12155;SDS011;6141;49.092;8.516;2022-07-17T21:51:58;5.33;;;2.20;;
12155;SDS011;6141;49.092;8.516;2022-07-17T21:54:27;6.67;;;2.27;;
12155;SDS011;6141;49.092;8.516;2022-07-17T21:56:56;7.20;;;2.07;;
12155;SDS011;6141;49.092;8.516;2022-07-17T21:59:30;7.30;;;2.30;;
12155;SDS011;6141;49.092;8.516;2022-07-17T22:01:59;4.03;;;2.20;;
12155;SDS011;6141;49.092;8.516;2022-07-17T22:04:30;7.40;;;2.43;;
12155;SDS011;6141;49.092;8.516;2022-07-17T22:06:58;6.13;;;2.20;;
12155;SDS011;6141;49.092;8.516;2022-07-17T22:09:27;9.57;;;2.40;;
12155;SDS011;6141;49.092;8.516;2022-07-17T22:11:56;9.47;;;2.40;;
12155;SDS011;6141;49.092;8.516;2022-07-17T22:14:26;14.80;;;2.60;;
12155;SDS011;6141;49.092;8.516;2022-07-17T22:16:57;8.77;;;2.43;;
12155;SDS011;6141;49.092;8.516;2022-07-17T22:19:57;12.90;;;2.60;;
12155;SDS011;6141;49.092;8.516;2022-07-17T22:22:35;14.33;;;2.50;;
12155;SDS011;6141;49.092;8.516;2022-07-17T22:25:22;11.07;;;2.80;;
12155;SDS011;6141;49.092;8.516;2022-07-17T22:27:51;26.07;;;3.90;;
12155;SDS011;6141;49.092;8.516;2022-07-17T22:36:28;7.73;;;2.37;;
12155;SDS011;6141;49.092;8.516;2022-07-17T22:38:57;6.73;;;2.20;;
12155;SDS011;6141;49.092;8.516;2022-07-17T22:41:25;5.57;;;2.27;;
12155;SDS011;6141;49.092;8.516;2022-07-17T22:43:54;6.90;;;2.40;;
12155;SDS011;6141;49.092;8.516;2022-07-17T22:46:22;8.23;;;2.60;;
12155;SDS011;6141;49.092;8.516;2022-07-17T22:48:51;8.93;;;2.80;;
12155;SDS011;6141;49.092;8.516;2022-07-17T22:51:19;13.87;;;3.10;;
12155;SDS011;6141;49.092;8.516;2022-07-17T22:53:49;10.87;;;2.70;;
12155;SDS011;6141;49.092;8.516;2022-07-17T22:56:17;14.30;;;2.60;;
12155;SDS011;6141;49.092;8.516;2022-07-17T22:58:51;5.57;;;2.03;;
12155;SDS011;6141;49.092;8.516;2022-07-17T23:01:20;8.53;;;2.30;;
12155;SDS011;6141;49.092;8.516;2022-07-17T23:03:49;6.87;;;2.40;;
12155;SDS011;6141;49.092;8.516;2022-07-17T23:06:18;4.13;;;2.20;;
12155;SDS011;6141;49.092;8.516;2022-07-17T23:08:47;4.93;;;2.13;;
12155;SDS011;6141;49.092;8.516;2022-07-17T23:11:17;8.37;;;2.40;;
12155;SDS011;6141;49.092;8.516;2022-07-17T23:16:34;6.30;;;2.10;;
12155;SDS011;6141;49.092;8.516;2022-07-17T23:19:03;5.77;;;2.20;;
12155;SDS011;6141;49.092;8.516;2022-07-17T23:21:34;3.87;;;2.00;;
12155;SDS011;6141;49.092;8.516;2022-07-17T23:24:04;5.03;;;2.20;;
12155;SDS011;6141;49.092;8.516;2022-07-17T23:26:34;3.23;;;1.97;;
12155;SDS011;6141;49.092;8.516;2022-07-17T23:29:02;2.70;;;1.90;;
12155;SDS011;6141;49.092;8.516;2022-07-17T23:31:31;2.93;;;2.00;;
12155;SDS011;6141;49.092;8.516;2022-07-17T23:33:59;3.30;;;2.00;;
12155;SDS011;6141;49.092;8.516;2022-07-17T23:36:28;3.67;;;1.80;;
12155;SDS011;6141;49.092;8.516;2022-07-17T23:38:56;4.17;;;2.10;;
12155;SDS011;6141;49.092;8.516;2022-07-17T23:41:26;4.73;;;1.80;;
12155;SDS011;6141;49.092;8.516;2022-07-17T23:43:54;4.50;;;1.90;;
12155;SDS011;6141;49.092;8.516;2022-07-17T23:46:23;4.60;;;1.97;;
12155;SDS011;6141;49.092;8.516;2022-07-17T23:48:54;3.00;;;2.00;;
12155;SDS011;6141;49.092;8.516;2022-07-17T23:51:22;4.40;;;2.00;;
12155;SDS011;6141;49.092;8.516;2022-07-17T23:53:51;5.60;;;2.10;;
12155;SDS011;6141;49.092;8.516;2022-07-17T23:56:19;3.27;;;1.93;;
12155;SDS011;6141;49.092;8.516;2022-07-17T23:58:49;4.80;;;2.17;;
